Wetterdaten: Woche 27.11.06 - 03.12.06 (KW48)
Datum Zeit Temperatur Luftfeuchte Luftdruck Niederschlag Wind Richtung Sonnenschein UV-Strahlung Solar Taupunkt Windchill Windben
27.11.2006 00:00 5.9 C 100 % 1025.4 hPa 0.0 l/m 0.2 km/h (0 Bft) SW 0.00 h 0.0 UV-I 0 W/m 5.9 C 5.9 C 0.5 km/h (0 Bft)
27.11.2006 01:00 5.4 C 100 % 1025.0 hPa 0.0 l/m 1.2 km/h (1 Bft) O 0.00 h 0.0 UV-I 0 W/m 5.4 C 5.4 C 2.4 km/h (1 Bft)
27.11.2006 02:00 5.3 C 100 % 1024.8 hPa 0.0 l/m 0.9 km/h (0 Bft) O-SO 0.00 h 0.0 UV-I 0 W/m 5.3 C 5.3 C 1.9 km/h (1 Bft)
27.11.2006 03:00 5.3 C 100 % 1024.8 hPa 0.0 l/m 0.5 km/h (0 Bft) O-SO 0.00 h 0.0 UV-I 0 W/m 5.3 C 5.3 C 1.0 km/h (0 Bft)
27.11.2006 04:00 5.5 C 100 % 1024.4 hPa 0.0 l/m 0.2 km/h (0 Bft) N-NO 0.00 h 0.0 UV-I 0 W/m 5.5 C 5.5 C 0.7 km/h (0 Bft)
27.11.2006 05:00 5.3 C 100 % 1024.5 hPa 0.0 l/m 0.7 km/h (0 Bft) NW 0.00 h 0.0 UV-I 0 W/m 5.3 C 5.3 C 1.8 km/h (1 Bft)
27.11.2006 06:00 5.3 C 100 % 1024.7 hPa 0.0 l/m 0.2 km/h (0 Bft) NW 0.00 h 0.0 UV-I 0 W/m 5.3 C 5.3 C 0.5 km/h (0 Bft)
27.11.2006 07:00 5.2 C 100 % 1025.1 hPa 0.0 l/m 0.2 km/h (0 Bft) NW 0.00 h 0.0 UV-I 5 W/m 5.2 C 5.2 C 1.1 km/h (0 Bft)
27.11.2006 08:00 5.4 C 100 % 1025.3 hPa 0.0 l/m 0.9 km/h (0 Bft) NW 0.00 h 0.0 UV-I 21 W/m 5.4 C 5.4 C 2.2 km/h (1 Bft)
27.11.2006 09:00 5.7 C 100 % 1025.7 hPa 0.0 l/m 0.2 km/h (0 Bft) O 0.00 h 0.0 UV-I 47 W/m 5.7 C 5.7 C 0.9 km/h (0 Bft)
27.11.2006 10:00 6.2 C 100 % 1026.0 hPa 0.0 l/m 1.7 km/h (1 Bft) O-SO 0.00 h 0.5 UV-I 83 W/m 6.2 C 6.2 C 4.0 km/h (1 Bft)
27.11.2006 11:00 6.6 C 100 % 1026.2 hPa 0.0 l/m 1.1 km/h (1 Bft) S-SO 0.00 h 0.6 UV-I 81 W/m 6.6 C 6.6 C 3.3 km/h (1 Bft)
27.11.2006 12:00 7.1 C 100 % 1026.0 hPa 0.0 l/m 1.5 km/h (1 Bft) S-SO 0.00 h 0.7 UV-I 123 W/m 7.1 C 7.1 C 3.9 km/h (1 Bft)
27.11.2006 13:00 8.1 C 98 % 1025.7 hPa 0.0 l/m 0.6 km/h (0 Bft) S-SO 0.37 h 0.8 UV-I 180 W/m 7.7 C 8.1 C 2.2 km/h (1 Bft)
27.11.2006 14:00 8.6 C 92 % 1025.5 hPa 0.0 l/m 1.1 km/h (1 Bft) W-SW 0.18 h 0.7 UV-I 122 W/m 7.4 C 8.6 C 2.9 km/h (1 Bft)
27.11.2006 15:00 8.5 C 93 % 1025.5 hPa 0.0 l/m 0.6 km/h (0 Bft) S-SO 0.00 h 0.5 UV-I 42 W/m 7.5 C 8.5 C 1.9 km/h (1 Bft)
27.11.2006 16:00 7.8 C 96 % 1025.8 hPa 0.0 l/m 0.2 km/h (0 Bft) O-SO 0.00 h 0.0 UV-I 8 W/m 7.2 C 7.8 C 1.3 km/h (1 Bft)
27.11.2006 17:00 7.6 C 97 % 1026.0 hPa 0.0 l/m 0.7 km/h (0 Bft) O-SO 0.00 h 0.0 UV-I 0 W/m 7.2 C 7.6 C 2.0 km/h (1 Bft)
27.11.2006 18:00 7.1 C 97 % 1026.3 hPa 0.0 l/m 1.2 km/h (1 Bft) O-SO 0.00 h 0.0 UV-I 0 W/m 6.7 C 7.1 C 2.9 km/h (1 Bft)
27.11.2006 19:00 6.8 C 98 % 1026.4 hPa 0.0 l/m 0.4 km/h (0 Bft) O-NO 0.00 h 0.0 UV-I 0 W/m 6.5 C 6.8 C 1.7 km/h (1 Bft)
27.11.2006 20:00 6.4 C 98 % 1026.8 hPa 0.0 l/m 0.7 km/h (0 Bft) O 0.00 h 0.0 UV-I 0 W/m 6.1 C 6.4 C 2.6 km/h (1 Bft)
27.11.2006 21:00 6.1 C 98 % 1026.9 hPa 0.0 l/m 0.6 km/h (0 Bft) O 0.00 h 0.0 UV-I 0 W/m 5.9 C 6.1 C 2.0 km/h (1 Bft)
27.11.2006 22:00 5.9 C 99 % 1026.8 hPa 0.0 l/m 1.2 km/h (1 Bft) N-NO 0.00 h 0.0 UV-I 0 W/m 5.8 C 5.9 C 3.3 km/h (1 Bft)
27.11.2006 23:00 5.6 C 99 % 1026.6 hPa 0.0 l/m 0.5 km/h (0 Bft) NO 0.00 h 0.0 UV-I 0 W/m 5.5 C 5.6 C 2.1 km/h (1 Bft)
28.11.2006 00:00 5.6 C 99 % 1026.6 hPa 0.0 l/m 0.3 km/h (0 Bft) SO 0.00 h 0.0 UV-I 0 W/m 5.4 C 5.6 C 1.6 km/h (1 Bft)
28.11.2006 01:00 5.2 C 99 % 1026.1 hPa 0.0 l/m 0.1 km/h (0 Bft) SO 0.00 h 0.0 UV-I 0 W/m 5.1 C 5.2 C 1.3 km/h (1 Bft)
28.11.2006 02:00 4.9 C 99 % 1026.1 hPa 0.0 l/m 0.4 km/h (0 Bft) S-SO 0.00 h 0.0 UV-I 0 W/m 4.8 C 4.9 C 1.8 km/h (1 Bft)
28.11.2006 03:00 4.8 C 99 % 1025.7 hPa 0.0 l/m 0.4 km/h (0 Bft) O 0.00 h 0.0 UV-I 0 W/m 4.6 C 4.8 C 1.7 km/h (1 Bft)
28.11.2006 04:00 4.7 C 99 % 1025.3 hPa 0.0 l/m 0.9 km/h (0 Bft) O 0.00 h 0.0 UV-I 0 W/m 4.5 C 4.7 C 2.3 km/h (1 Bft)
28.11.2006 05:00 4.5 C 99 % 1025.1 hPa 0.0 l/m 2.6 km/h (1 Bft) O-SO 0.00 h 0.0 UV-I 0 W/m 4.3 C 4.3 C 4.7 km/h (1 Bft)
28.11.2006 06:00 4.2 C 99 % 1024.8 hPa 0.0 l/m 3.6 km/h (1 Bft) O-SO 0.00 h 0.0 UV-I 0 W/m 4.0 C 3.6 C 6.1 km/h (2 Bft)
28.11.2006 07:00 3.9 C 100 % 1024.7 hPa 0.0 l/m 1.4 km/h (1 Bft) O-SO 0.00 h 0.0 UV-I 0 W/m 3.8 C 3.9 C 3.4 km/h (1 Bft)
28.11.2006 08:00 3.9 C 100 % 1024.7 hPa 0.0 l/m 0.7 km/h (0 Bft) S 0.00 h 0.0 UV-I 10 W/m 3.9 C 3.9 C 2.3 km/h (1 Bft)
28.11.2006 09:00 3.7 C 100 % 1024.8 hPa 0.0 l/m 0.9 km/h (0 Bft) S 0.00 h 0.0 UV-I 28 W/m 3.7 C 3.7 C 2.6 km/h (1 Bft)
28.11.2006 10:00 4.1 C 100 % 1024.7 hPa 0.0 l/m 0.3 km/h (0 Bft) SO 0.00 h 0.5 UV-I 49 W/m 4.1 C 4.1 C 1.5 km/h (1 Bft)
28.11.2006 11:00 4.4 C 100 % 1024.3 hPa 0.0 l/m 0.8 km/h (0 Bft) O-SO 0.00 h 0.6 UV-I 81 W/m 4.3 C 4.4 C 2.3 km/h (1 Bft)
28.11.2006 12:00 4.9 C 97 % 1023.7 hPa 0.0 l/m 0.9 km/h (0 Bft) O-SO 0.00 h 0.6 UV-I 72 W/m 4.5 C 4.9 C 2.6 km/h (1 Bft)
28.11.2006 13:00 4.9 C 96 % 1023.3 hPa 0.0 l/m 1.5 km/h (1 Bft) O-SO 0.00 h 0.6 UV-I 68 W/m 4.3 C 4.7 C 2.7 km/h (1 Bft)
28.11.2006 14:00 5.2 C 95 % 1023.1 hPa 0.2 l/m 0.9 km/h (0 Bft) O-SO 0.00 h 0.5 UV-I 53 W/m 4.6 C 5.2 C 2.6 km/h (1 Bft)
28.11.2006 15:00 5.2 C 95 % 1023.1 hPa 0.0 l/m 0.5 km/h (0 Bft) O-SO 0.00 h 0.0 UV-I 26 W/m 4.5 C 5.2 C 1.8 km/h (1 Bft)
28.11.2006 16:00 5.3 C 95 % 1023.5 hPa 0.0 l/m 2.2 km/h (1 Bft) SO 0.00 h 0.0 UV-I 8 W/m 4.5 C 5.1 C 4.4 km/h (1 Bft)
28.11.2006 17:00 5.3 C 96 % 1023.9 hPa 0.0 l/m 1.7 km/h (1 Bft) O-SO 0.00 h 0.0 UV-I 0 W/m 4.6 C 5.2 C 2.9 km/h (1 Bft)
28.11.2006 18:00 5.4 C 96 % 1024.6 hPa 0.0 l/m 1.2 km/h (1 Bft) O-SO 0.00 h 0.0 UV-I 0 W/m 4.8 C 5.3 C 2.8 km/h (1 Bft)
28.11.2006 19:00 5.3 C 96 % 1025.3 hPa 0.0 l/m 1.2 km/h (1 Bft) SO 0.00 h 0.0 UV-I 0 W/m 4.7 C 5.2 C 3.3 km/h (1 Bft)
28.11.2006 20:00 5.1 C 97 % 1025.9 hPa 0.0 l/m 0.9 km/h (0 Bft) S 0.00 h 0.0 UV-I 0 W/m 4.6 C 5.1 C 2.4 km/h (1 Bft)
28.11.2006 21:00 5.0 C 97 % 1026.3 hPa 0.0 l/m 0.4 km/h (0 Bft) S-SO 0.00 h 0.0 UV-I 0 W/m 4.5 C 5.0 C 1.7 km/h (1 Bft)
28.11.2006 22:00 4.9 C 96 % 1026.6 hPa 0.0 l/m 0.1 km/h (0 Bft) S-SW 0.00 h 0.0 UV-I 0 W/m 4.3 C 4.9 C 0.4 km/h (0 Bft)
28.11.2006 23:00 4.8 C 96 % 1026.8 hPa 0.0 l/m 0.0 km/h (0 Bft) N 0.00 h 0.0 UV-I 0 W/m 4.3 C 4.8 C 0.1 km/h (0 Bft)
29.11.2006 00:00 5.0 C 96 % 1027.0 hPa 0.0 l/m 0.3 km/h (0 Bft) SO 0.00 h 0.0 UV-I 0 W/m 4.5 C 5.0 C 1.3 km/h (1 Bft)
29.11.2006 01:00 4.8 C 97 % 1027.0 hPa 0.0 l/m 1.3 km/h (1 Bft) O-SO 0.00 h 0.0 UV-I 0 W/m 4.3 C 4.7 C 2.9 km/h (1 Bft)
29.11.2006 02:00 4.7 C 97 % 1027.2 hPa 0.0 l/m 0.1 km/h (0 Bft) O-SO 0.00 h 0.0 UV-I 0 W/m 4.3 C 4.7 C 1.2 km/h (1 Bft)
29.11.2006 03:00 4.6 C 97 % 1027.5 hPa 0.0 l/m 0.2 km/h (0 Bft) O-NO 0.00 h 0.0 UV-I 0 W/m 4.2 C 4.6 C 0.9 km/h (0 Bft)
29.11.2006 04:00 4.7 C 97 % 1027.7 hPa 0.0 l/m 1.0 km/h (0 Bft) W-NW 0.00 h 0.0 UV-I 0 W/m 4.2 C 4.7 C 2.5 km/h (1 Bft)
29.11.2006 05:00 4.6 C 97 % 1028.1 hPa 0.0 l/m 0.0 km/h (0 Bft) N 0.00 h 0.0 UV-I 0 W/m 4.2 C 4.6 C 0.2 km/h (0 Bft)
29.11.2006 06:00 4.7 C 98 % 1028.6 hPa 0.4 l/m 1.1 km/h (0 Bft) S-SO 0.00 h 0.0 UV-I 0 W/m 4.4 C 4.7 C 2.9 km/h (1 Bft)
29.11.2006 07:00 4.6 C 97 % 1029.3 hPa 0.6 l/m 1.7 km/h (1 Bft) S-SO 0.00 h 0.0 UV-I 0 W/m 4.2 C 4.6 C 4.3 km/h (1 Bft)
29.11.2006 08:00 4.9 C 98 % 1030.0 hPa 0.0 l/m 0.7 km/h (0 Bft) SO 0.00 h 0.0 UV-I 8 W/m 4.6 C 4.9 C 2.0 km/h (1 Bft)
29.11.2006 09:00 5.2 C 98 % 1030.6 hPa 0.2 l/m 0.0 km/h (0 Bft) SO 0.00 h 0.0 UV-I 20 W/m 4.9 C 5.2 C 0.3 km/h (0 Bft)
29.11.2006 10:00 5.6 C 98 % 1031.4 hPa 0.2 l/m 0.0 km/h (0 Bft) N 0.00 h 0.0 UV-I 27 W/m 5.3 C 5.6 C 0.0 km/h (0 Bft)
29.11.2006 11:00 6.1 C 98 % 1031.6 hPa 0.0 l/m 0.0 km/h (0 Bft) SO 0.00 h 0.0 UV-I 42 W/m 5.8 C 6.1 C 0.2 km/h (0 Bft)
29.11.2006 12:00 6.3 C 97 % 1031.6 hPa 0.0 l/m 0.1 km/h (0 Bft) SO 0.00 h 0.0 UV-I 29 W/m 5.9 C 6.3 C 0.4 km/h (0 Bft)
29.11.2006 13:00 6.5 C 97 % 1031.8 hPa 0.8 l/m 0.0 km/h (0 Bft) N 0.00 h 0.0 UV-I 33 W/m 6.1 C 6.5 C 0.1 km/h (0 Bft)
29.11.2006 14:00 6.7 C 97 % 1032.2 hPa 0.4 l/m 0.0 km/h (0 Bft) SO 0.00 h 0.0 UV-I 32 W/m 6.3 C 6.7 C 0.4 km/h (0 Bft)
29.11.2006 15:00 6.8 C 97 % 1032.5 hPa 0.6 l/m 0.0 km/h (0 Bft) N 0.00 h 0.0 UV-I 22 W/m 6.4 C 6.8 C 0.0 km/h (0 Bft)
29.11.2006 16:00 6.9 C 98 % 1033.1 hPa 0.4 l/m 0.0 km/h (0 Bft) N 0.00 h 0.0 UV-I 10 W/m 6.6 C 6.9 C 0.1 km/h (0 Bft)
29.11.2006 17:00 6.8 C 98 % 1033.4 hPa 0.2 l/m 0.0 km/h (0 Bft) SO 0.00 h 0.0 UV-I 0 W/m 6.5 C 6.8 C 0.2 km/h (0 Bft)
29.11.2006 18:00 6.7 C 98 % 1034.0 hPa 0.0 l/m 0.0 km/h (0 Bft) SO 0.00 h 0.0 UV-I 0 W/m 6.5 C 6.7 C 0.1 km/h (0 Bft)
29.11.2006 19:00 6.8 C 98 % 1034.4 hPa 0.2 l/m 0.2 km/h (0 Bft) S-SW 0.00 h 0.0 UV-I 0 W/m 6.5 C 6.8 C 1.2 km/h (1 Bft)
29.11.2006 20:00 6.9 C 99 % 1034.7 hPa 0.0 l/m 0.1 km/h (0 Bft) W 0.00 h 0.0 UV-I 0 W/m 6.8 C 6.9 C 0.6 km/h (0 Bft)
29.11.2006 21:00 6.9 C 99 % 1034.9 hPa 0.0 l/m 0.1 km/h (0 Bft) W 0.00 h 0.0 UV-I 0 W/m 6.8 C 6.9 C 0.3 km/h (0 Bft)
29.11.2006 22:00 7.0 C 99 % 1034.9 hPa 0.0 l/m 0.1 km/h (0 Bft) N-NW 0.00 h 0.0 UV-I 0 W/m 6.8 C 7.0 C 0.8 km/h (0 Bft)
29.11.2006 23:00 7.2 C 99 % 1034.7 hPa 0.0 l/m 0.0 km/h (0 Bft) N-NO 0.00 h 0.0 UV-I 0 W/m 7.0 C 7.2 C 0.7 km/h (0 Bft)
30.11.2006 00:00 7.2 C 99 % 1034.4 hPa 0.0 l/m 0.4 km/h (0 Bft) N-NO 0.00 h 0.0 UV-I 0 W/m 7.1 C 7.2 C 1.8 km/h (1 Bft)
30.11.2006 01:00 7.6 C 99 % 1034.0 hPa 0.0 l/m 0.8 km/h (0 Bft) NO 0.00 h 0.0 UV-I 0 W/m 7.5 C 7.6 C 2.7 km/h (1 Bft)
30.11.2006 02:00 7.9 C 97 % 1033.7 hPa 0.0 l/m 2.0 km/h (1 Bft) NO 0.00 h 0.0 UV-I 0 W/m 7.4 C 7.8 C 4.6 km/h (1 Bft)
30.11.2006 03:00 8.4 C 93 % 1033.4 hPa 0.0 l/m 2.9 km/h (1 Bft) NO 0.00 h 0.0 UV-I 0 W/m 7.3 C 8.1 C 5.8 km/h (2 Bft)
30.11.2006 04:00 8.7 C 90 % 1033.0 hPa 0.0 l/m 3.2 km/h (1 Bft) N-NO 0.00 h 0.0 UV-I 0 W/m 7.2 C 8.4 C 6.9 km/h (2 Bft)
30.11.2006 05:00 8.8 C 90 % 1033.0 hPa 0.0 l/m 1.5 km/h (1 Bft) O-NO 0.00 h 0.0 UV-I 0 W/m 7.2 C 8.8 C 3.8 km/h (1 Bft)
30.11.2006 06:00 9.0 C 87 % 1033.1 hPa 0.0 l/m 2.4 km/h (1 Bft) O-SO 0.00 h 0.0 UV-I 0 W/m 6.9 C 8.9 C 5.7 km/h (1 Bft)
30.11.2006 07:00 8.8 C 87 % 1033.2 hPa 0.0 l/m 2.3 km/h (1 Bft) O 0.00 h 0.0 UV-I 0 W/m 6.7 C 8.7 C 5.6 km/h (1 Bft)
30.11.2006 08:00 8.7 C 86 % 1033.5 hPa 0.0 l/m 2.1 km/h (1 Bft) O-SO 0.00 h 0.0 UV-I 6 W/m 6.5 C 8.6 C 5.0 km/h (1 Bft)
30.11.2006 09:00 8.7 C 86 % 1033.3 hPa 0.0 l/m 2.3 km/h (1 Bft) O-SO 0.00 h 0.0 UV-I 26 W/m 6.5 C 8.6 C 5.2 km/h (1 Bft)
30.11.2006 10:00 8.8 C 86 % 1033.4 hPa 0.0 l/m 2.1 km/h (1 Bft) O 0.00 h 0.0 UV-I 33 W/m 6.6 C 8.7 C 5.5 km/h (1 Bft)
30.11.2006 11:00 9.0 C 86 % 1033.0 hPa 0.0 l/m 1.0 km/h (0 Bft) O 0.00 h 0.5 UV-I 51 W/m 6.7 C 8.9 C 2.8 km/h (1 Bft)
30.11.2006 12:00 9.1 C 84 % 1032.2 hPa 0.0 l/m 1.1 km/h (1 Bft) O-SO 0.00 h 0.6 UV-I 49 W/m 6.5 C 9.1 C 3.1 km/h (1 Bft)
30.11.2006 13:00 9.0 C 83 % 1031.8 hPa 0.0 l/m 1.8 km/h (1 Bft) NO 0.00 h 0.0 UV-I 40 W/m 6.2 C 8.9 C 4.6 km/h (1 Bft)
30.11.2006 14:00 9.0 C 82 % 1031.5 hPa 0.0 l/m 1.2 km/h (1 Bft) O 0.00 h 0.5 UV-I 45 W/m 6.0 C 8.9 C 3.5 km/h (1 Bft)
30.11.2006 15:00 8.8 C 82 % 1031.6 hPa 0.0 l/m 1.0 km/h (0 Bft) N-NO 0.00 h 0.0 UV-I 18 W/m 5.9 C 8.8 C 3.0 km/h (1 Bft)
30.11.2006 16:00 8.5 C 83 % 1031.9 hPa 0.0 l/m 1.1 km/h (1 Bft) NO 0.00 h 0.0 UV-I 7 W/m 5.8 C 8.5 C 3.7 km/h (1 Bft)
30.11.2006 17:00 8.2 C 84 % 1032.1 hPa 0.0 l/m 0.7 km/h (0 Bft) NO 0.00 h 0.0 UV-I 0 W/m 5.6 C 8.2 C 2.6 km/h (1 Bft)
30.11.2006 18:00 8.0 C 86 % 1032.3 hPa 0.0 l/m 2.7 km/h (1 Bft) O-SO 0.00 h 0.0 UV-I 0 W/m 5.8 C 7.9 C 4.4 km/h (1 Bft)
30.11.2006 19:00 7.9 C 87 % 1032.2 hPa 0.0 l/m 2.0 km/h (1 Bft) O-SO 0.00 h 0.0 UV-I 0 W/m 5.8 C 7.8 C 3.5 km/h (1 Bft)
30.11.2006 20:00 7.7 C 87 % 1032.3 hPa 0.0 l/m 0.1 km/h (0 Bft) O-SO 0.00 h 0.0 UV-I 0 W/m 5.7 C 7.7 C 0.2 km/h (0 Bft)
30.11.2006 21:00 7.7 C 88 % 1032.2 hPa 0.0 l/m 0.1 km/h (0 Bft) O-SO 0.00 h 0.0 UV-I 0 W/m 5.8 C 7.7 C 0.2 km/h (0 Bft)
30.11.2006 22:00 7.4 C 90 % 1032.3 hPa 0.0 l/m 0.2 km/h (0 Bft) O-SO 0.00 h 0.0 UV-I 0 W/m 5.8 C 7.4 C 0.7 km/h (0 Bft)
30.11.2006 23:00 7.3 C 90 % 1032.4 hPa 0.0 l/m 0.0 km/h (0 Bft) N 0.00 h 0.0 UV-I 0 W/m 5.8 C 7.3 C 0.8 km/h (0 Bft)
01.12.2006 00:00 7.2 C 91 % 1032.4 hPa 0.0 l/m 0.3 km/h (0 Bft) O-SO 0.00 h 0.0 UV-I 0 W/m 5.8 C 7.2 C 0.8 km/h (0 Bft)
01.12.2006 01:00 7.2 C 92 % 1032.0 hPa 0.0 l/m 0.4 km/h (0 Bft) O 0.00 h 0.0 UV-I 0 W/m 5.9 C 7.2 C 0.9 km/h (0 Bft)
01.12.2006 02:00 7.2 C 90 % 1032.0 hPa 0.0 l/m 0.4 km/h (0 Bft) O 0.00 h 0.0 UV-I 0 W/m 5.6 C 7.2 C 0.9 km/h (0 Bft)
01.12.2006 03:00 7.0 C 88 % 1032.0 hPa 0.0 l/m 0.5 km/h (0 Bft) O 0.00 h 0.0 UV-I 0 W/m 5.2 C 7.0 C 1.2 km/h (1 Bft)
01.12.2006 04:00 6.2 C 90 % 1031.7 hPa 0.0 l/m 0.0 km/h (0 Bft) N 0.00 h 0.0 UV-I 0 W/m 4.7 C 6.2 C 0.0 km/h (0 Bft)
01.12.2006 05:00 5.3 C 93 % 1031.7 hPa 0.0 l/m 0.0 km/h (0 Bft) O 0.00 h 0.0 UV-I 0 W/m 4.3 C 5.3 C 0.2 km/h (0 Bft)
01.12.2006 06:00 5.5 C 96 % 1031.8 hPa 0.0 l/m 0.0 km/h (0 Bft) N 0.00 h 0.0 UV-I 0 W/m 4.8 C 5.5 C 0.1 km/h (0 Bft)
01.12.2006 07:00 5.7 C 96 % 1032.1 hPa 0.0 l/m 0.4 km/h (0 Bft) O-SO 0.00 h 0.0 UV-I 0 W/m 5.2 C 5.7 C 0.8 km/h (0 Bft)
01.12.2006 08:00 6.4 C 94 % 1032.1 hPa 0.0 l/m 1.4 km/h (1 Bft) SO 0.00 h 0.0 UV-I 10 W/m 5.5 C 6.3 C 2.7 km/h (1 Bft)
01.12.2006 09:00 6.9 C 89 % 1032.2 hPa 0.0 l/m 0.9 km/h (0 Bft) S-SO 0.00 h 0.0 UV-I 32 W/m 5.3 C 6.9 C 2.5 km/h (1 Bft)
01.12.2006 10:00 7.3 C 88 % 1032.2 hPa 0.0 l/m 0.6 km/h (0 Bft) S-SO 0.00 h 0.0 UV-I 42 W/m 5.4 C 7.3 C 2.6 km/h (1 Bft)
01.12.2006 11:00 7.4 C 87 % 1032.2 hPa 0.0 l/m 0.5 km/h (0 Bft) S-SW 0.00 h 0.0 UV-I 48 W/m 5.4 C 7.4 C 2.0 km/h (1 Bft)
01.12.2006 12:00 7.3 C 87 % 1031.6 hPa 0.0 l/m 0.9 km/h (0 Bft) S 0.00 h 0.5 UV-I 59 W/m 5.3 C 7.3 C 2.8 km/h (1 Bft)
01.12.2006 13:00 7.2 C 87 % 1031.4 hPa 0.0 l/m 2.4 km/h (1 Bft) SO 0.00 h 0.0 UV-I 52 W/m 5.2 C 7.1 C 4.8 km/h (1 Bft)
01.12.2006 14:00 6.8 C 89 % 1031.0 hPa 0.0 l/m 3.3 km/h (1 Bft) O-SO 0.00 h 0.0 UV-I 39 W/m 5.1 C 6.6 C 5.4 km/h (1 Bft)
01.12.2006 15:00 6.8 C 89 % 1030.7 hPa 0.0 l/m 3.5 km/h (1 Bft) O-SO 0.00 h 0.0 UV-I 17 W/m 5.0 C 6.5 C 5.7 km/h (1 Bft)
01.12.2006 16:00 6.6 C 89 % 1030.5 hPa 0.0 l/m 4.2 km/h (1 Bft) O-SO 0.00 h 0.0 UV-I 6 W/m 4.9 C 6.1 C 6.6 km/h (2 Bft)
01.12.2006 17:00 6.2 C 89 % 1030.4 hPa 0.0 l/m 4.7 km/h (1 Bft) O-SO 0.00 h 0.0 UV-I 0 W/m 4.5 C 5.6 C 6.8 km/h (2 Bft)
01.12.2006 18:00 5.9 C 90 % 1030.1 hPa 0.0 l/m 3.1 km/h (1 Bft) O-SO 0.00 h 0.0 UV-I 0 W/m 4.3 C 5.5 C 5.2 km/h (1 Bft)
01.12.2006 19:00 5.7 C 91 % 1030.0 hPa 0.0 l/m 0.1 km/h (0 Bft) SO 0.00 h 0.0 UV-I 0 W/m 4.3 C 5.7 C 0.5 km/h (0 Bft)
01.12.2006 20:00 5.6 C 91 % 1029.8 hPa 0.0 l/m 0.2 km/h (0 Bft) S-SO 0.00 h 0.0 UV-I 0 W/m 4.2 C 5.6 C 0.7 km/h (0 Bft)
01.12.2006 21:00 5.6 C 90 % 1029.6 hPa 0.0 l/m 0.2 km/h (0 Bft) S-SO 0.00 h 0.0 UV-I 0 W/m 4.1 C 5.6 C 1.4 km/h (1 Bft)
01.12.2006 22:00 5.5 C 90 % 1029.3 hPa 0.0 l/m 0.5 km/h (0 Bft) S-SO 0.00 h 0.0 UV-I 0 W/m 4.0 C 5.5 C 1.9 km/h (1 Bft)
01.12.2006 23:00 5.3 C 89 % 1028.9 hPa 0.0 l/m 0.4 km/h (0 Bft) SO 0.00 h 0.0 UV-I 0 W/m 3.7 C 5.3 C 2.1 km/h (1 Bft)
02.12.2006 00:00 5.2 C 88 % 1028.3 hPa 0.0 l/m 0.2 km/h (0 Bft) S-SO 0.00 h 0.0 UV-I 0 W/m 3.4 C 5.2 C 1.0 km/h (0 Bft)
02.12.2006 01:00 5.1 C 89 % 1027.8 hPa 0.0 l/m 1.4 km/h (1 Bft) O-SO 0.00 h 0.0 UV-I 0 W/m 3.5 C 5.0 C 2.8 km/h (1 Bft)
02.12.2006 02:00 4.9 C 91 % 1027.4 hPa 0.0 l/m 0.3 km/h (0 Bft) SW 0.00 h 0.0 UV-I 0 W/m 3.6 C 4.9 C 1.7 km/h (1 Bft)
02.12.2006 03:00 4.7 C 91 % 1026.9 hPa 0.0 l/m 0.2 km/h (0 Bft) SW 0.00 h 0.0 UV-I 0 W/m 3.4 C 4.7 C 1.1 km/h (0 Bft)
02.12.2006 04:00 4.6 C 91 % 1026.4 hPa 0.0 l/m 0.0 km/h (0 Bft) N 0.00 h 0.0 UV-I 0 W/m 3.3 C 4.6 C 0.4 km/h (0 Bft)
02.12.2006 05:00 4.5 C 93 % 1025.9 hPa 0.0 l/m 0.1 km/h (0 Bft) S 0.00 h 0.0 UV-I 0 W/m 3.4 C 4.5 C 0.4 km/h (0 Bft)
02.12.2006 06:00 4.5 C 93 % 1025.9 hPa 0.0 l/m 0.1 km/h (0 Bft) SO 0.00 h 0.0 UV-I 0 W/m 3.5 C 4.5 C 0.4 km/h (0 Bft)
02.12.2006 07:00 4.5 C 92 % 1025.9 hPa 0.0 l/m 0.3 km/h (0 Bft) SO 0.00 h 0.0 UV-I 0 W/m 3.3 C 4.5 C 1.4 km/h (1 Bft)
02.12.2006 08:00 4.4 C 92 % 1025.8 hPa 0.0 l/m 0.6 km/h (0 Bft) S-SO 0.00 h 0.0 UV-I 12 W/m 3.3 C 4.4 C 2.1 km/h (1 Bft)
02.12.2006 09:00 4.4 C 91 % 1025.9 hPa 0.0 l/m 1.5 km/h (1 Bft) O 0.00 h 0.0 UV-I 27 W/m 3.2 C 4.4 C 3.8 km/h (1 Bft)
02.12.2006 10:00 4.5 C 91 % 1025.9 hPa 0.0 l/m 1.2 km/h (1 Bft) SO 0.00 h 0.0 UV-I 35 W/m 3.2 C 4.5 C 3.2 km/h (1 Bft)
02.12.2006 11:00 4.5 C 90 % 1025.5 hPa 0.0 l/m 0.4 km/h (0 Bft) O-NO 0.00 h 0.6 UV-I 60 W/m 3.0 C 4.5 C 1.7 km/h (1 Bft)
02.12.2006 12:00 4.9 C 88 % 1024.7 hPa 0.0 l/m 0.1 km/h (0 Bft) O 0.00 h 0.6 UV-I 69 W/m 3.1 C 4.9 C 0.4 km/h (0 Bft)
02.12.2006 13:00 5.2 C 88 % 1024.2 hPa 0.0 l/m 0.1 km/h (0 Bft) S-SO 0.00 h 0.6 UV-I 63 W/m 3.3 C 5.2 C 1.2 km/h (1 Bft)
02.12.2006 14:00 5.3 C 87 % 1023.7 hPa 0.0 l/m 0.3 km/h (0 Bft) S-SO 0.00 h 0.5 UV-I 54 W/m 3.3 C 5.3 C 2.0 km/h (1 Bft)
02.12.2006 15:00 5.3 C 86 % 1023.4 hPa 0.0 l/m 0.6 km/h (0 Bft) S-SO 0.00 h 0.0 UV-I 31 W/m 3.3 C 5.3 C 2.2 km/h (1 Bft)
02.12.2006 16:00 5.1 C 87 % 1023.6 hPa 0.0 l/m 0.4 km/h (0 Bft) S-SO 0.00 h 0.0 UV-I 15 W/m 3.0 C 5.1 C 1.6 km/h (1 Bft)
02.12.2006 17:00 4.8 C 89 % 1023.6 hPa 0.0 l/m 0.1 km/h (0 Bft) S-SO 0.00 h 0.0 UV-I 0 W/m 3.1 C 4.8 C 0.5 km/h (0 Bft)
02.12.2006 18:00 4.8 C 90 % 1023.7 hPa 0.0 l/m 0.1 km/h (0 Bft) S-SO 0.00 h 0.0 UV-I 0 W/m 3.3 C 4.8 C 0.7 km/h (0 Bft)
02.12.2006 19:00 4.8 C 90 % 1023.6 hPa 0.0 l/m 0.0 km/h (0 Bft) N 0.00 h 0.0 UV-I 0 W/m 3.4 C 4.8 C 0.2 km/h (0 Bft)
02.12.2006 20:00 4.8 C 92 % 1023.4 hPa 0.0 l/m 0.0 km/h (0 Bft) N 0.00 h 0.0 UV-I 0 W/m 3.6 C 4.8 C 0.2 km/h (0 Bft)
02.12.2006 21:00 4.8 C 92 % 1023.2 hPa 0.2 l/m 0.7 km/h (0 Bft) O-SO 0.00 h 0.0 UV-I 0 W/m 3.6 C 4.8 C 1.8 km/h (1 Bft)
02.12.2006 22:00 4.8 C 93 % 1022.9 hPa 0.2 l/m 0.4 km/h (0 Bft) O 0.00 h 0.0 UV-I 0 W/m 3.8 C 4.8 C 1.2 km/h (1 Bft)
02.12.2006 23:00 4.7 C 94 % 1022.8 hPa 0.0 l/m 0.6 km/h (0 Bft) O 0.00 h 0.0 UV-I 0 W/m 3.9 C 4.7 C 1.5 km/h (1 Bft)
03.12.2006 00:00 4.8 C 96 % 1022.6 hPa 1.8 l/m 1.2 km/h (1 Bft) S-SO 0.00 h 0.0 UV-I 0 W/m 4.1 C 4.7 C 2.7 km/h (1 Bft)
03.12.2006 01:00 4.5 C 96 % 1022.3 hPa 0.0 l/m 0.6 km/h (0 Bft) S 0.00 h 0.0 UV-I 0 W/m 4.0 C 4.5 C 2.2 km/h (1 Bft)
03.12.2006 02:00 4.5 C 97 % 1021.8 hPa 0.0 l/m 0.2 km/h (0 Bft) S 0.00 h 0.0 UV-I 0 W/m 4.0 C 4.5 C 0.7 km/h (0 Bft)
03.12.2006 03:00 4.6 C 97 % 1021.5 hPa 0.0 l/m 0.2 km/h (0 Bft) SO 0.00 h 0.0 UV-I 0 W/m 4.1 C 4.6 C 0.7 km/h (0 Bft)
03.12.2006 04:00 4.7 C 97 % 1020.7 hPa 0.2 l/m 0.2 km/h (0 Bft) SO 0.00 h 0.0 UV-I 0 W/m 4.2 C 4.7 C 1.0 km/h (0 Bft)
03.12.2006 05:00 4.6 C 97 % 1020.0 hPa 0.0 l/m 0.6 km/h (0 Bft) SO 0.00 h 0.0 UV-I 0 W/m 4.2 C 4.6 C 1.4 km/h (1 Bft)
03.12.2006 06:00 4.5 C 97 % 1019.5 hPa 0.2 l/m 0.1 km/h (0 Bft) O-SO 0.00 h 0.0 UV-I 0 W/m 4.1 C 4.5 C 0.7 km/h (0 Bft)
03.12.2006 07:00 4.5 C 97 % 1019.3 hPa 0.0 l/m 0.4 km/h (0 Bft) O-SO 0.00 h 0.0 UV-I 0 W/m 4.1 C 4.5 C 1.0 km/h (0 Bft)
03.12.2006 08:00 4.4 C 97 % 1019.0 hPa 0.0 l/m 1.1 km/h (1 Bft) O-SO 0.00 h 0.0 UV-I 21 W/m 4.0 C 4.4 C 1.9 km/h (1 Bft)
03.12.2006 09:00 4.5 C 97 % 1018.8 hPa 0.0 l/m 2.2 km/h (1 Bft) O-SO 0.00 h 0.5 UV-I 56 W/m 4.1 C 4.4 C 3.8 km/h (1 Bft)
03.12.2006 10:00 5.3 C 95 % 1018.2 hPa 0.0 l/m 0.3 km/h (0 Bft) O-SO 0.35 h 0.7 UV-I 139 W/m 4.6 C 5.3 C 1.7 km/h (1 Bft)
03.12.2006 11:00 6.9 C 90 % 1017.2 hPa 0.0 l/m 0.6 km/h (0 Bft) O-SO 0.48 h 0.8 UV-I 190 W/m 5.4 C 6.9 C 2.2 km/h (1 Bft)
03.12.2006 12:00 8.3 C 87 % 1016.2 hPa 0.0 l/m 2.9 km/h (1 Bft) O-SO 0.50 h 1.0 UV-I 228 W/m 6.2 C 8.1 C 5.5 km/h (1 Bft)
03.12.2006 13:00 9.2 C 85 % 1015.1 hPa 0.0 l/m 5.6 km/h (1 Bft) S-SW 0.45 h 0.9 UV-I 152 W/m 6.8 C 8.7 C 11.7 km/h (2 Bft)
03.12.2006 14:00 10.2 C 81 % 1014.2 hPa 0.0 l/m 6.0 km/h (2 Bft) SW 0.62 h 0.7 UV-I 154 W/m 7.2 C 10.1 C 12.8 km/h (3 Bft)
03.12.2006 15:00 10.3 C 81 % 1013.5 hPa 0.0 l/m 4.8 km/h (1 Bft) S 0.15 h 0.5 UV-I 68 W/m 7.1 C 10.3 C 10.1 km/h (2 Bft)
03.12.2006 16:00 9.5 C 83 % 1012.9 hPa 0.0 l/m 4.2 km/h (1 Bft) S 0.00 h 0.0 UV-I 14 W/m 6.8 C 9.3 C 9.3 km/h (2 Bft)
03.12.2006 17:00 9.5 C 83 % 1012.4 hPa 0.0 l/m 3.7 km/h (1 Bft) SW 0.00 h 0.0 UV-I 0 W/m 6.8 C 9.2 C 8.6 km/h (2 Bft)
03.12.2006 18:00 9.6 C 83 % 1012.0 hPa 0.0 l/m 8.5 km/h (2 Bft) S-SO 0.00 h 0.0 UV-I 0 W/m 6.9 C 8.5 C 15.7 km/h (3 Bft)
03.12.2006 19:00 10.1 C 81 % 1011.6 hPa 0.0 l/m 7.6 km/h (2 Bft) S-SO 0.00 h 0.0 UV-I 0 W/m 7.0 C 9.4 C 13.3 km/h (3 Bft)
03.12.2006 20:00 10.1 C 80 % 1011.4 hPa 0.0 l/m 9.3 km/h (2 Bft) S-SO 0.00 h 0.0 UV-I 0 W/m 6.8 C 9.7 C 16.4 km/h (3 Bft)
03.12.2006 21:00 10.5 C 79 % 1011.4 hPa 0.2 l/m 9.8 km/h (2 Bft) S 0.00 h 0.0 UV-I 0 W/m 6.9 C 10.5 C 17.8 km/h (3 Bft)
03.12.2006 22:00 11.2 C 78 % 1011.7 hPa 0.8 l/m 8.9 km/h (2 Bft) W 0.00 h 0.0 UV-I 0 W/m 7.6 C 11.2 C 15.5 km/h (3 Bft)
03.12.2006 23:00 11.9 C 72 % 1011.6 hPa 0.2 l/m 12.6 km/h (3 Bft) W 0.00 h 0.0 UV-I 0 W/m 7.0 C 11.9 C 21.0 km/h (4 Bft)
Min-Datum _ 28.11.06 03.12.06 03.12.06 - 27.11.06 - - - - 02.12.06 28.11.06 27.11.06
_ Min-Zeit 09:00 23:53 21:15 - 00:00 - - - - 11:47 06:46 00:00
Minimum _ 3.7 C 64 % 1011.2 hPa - 0.0 km/h (0 Bft) - - - - 2.8 C 1.8 C 0.0 km/h (0 Bft)
Max-Datum _ 03.12.06 27.11.06 29.11.06 03.12.06 03.12.06 - 27.11.06 03.12.06 03.12.06 27.11.06 03.12.06 03.12.06
_ Max-Zeit 23:56 00:00 21:45 00:20 23:50 - 13:37 12:09 12:05 13:40 23:56 23:59
Maximum _ 12.9 C 100 % 1035.0 hPa 1.8 l/m 26.6 km/h
W (4 Bft)
- 0.02 h 1.1 UV-I 443 W/m 8.1 C 12.9 C 41.5 km/h
W (6 Bft)
Durchschnitt _ 6.3 C 93 % 1026.7 hPa #8.0 l/m 1.3 km/h (1 Bft) O-SO #3:06 h 0.6 UV-I 52 W/m 5.2 C 6.2 C 2.9 km/h (1 Bft)
© Kaiko 2006